sensor_id;sensor_type;location;lat;lon;timestamp;P1;durP1;ratioP1;P2;durP2;ratioP2
45806;SDS011;31507;51.494;7.518;2023-04-24T00:00:17;1.63;;;0.57;;
45806;SDS011;31507;51.494;7.518;2023-04-24T00:02:43;0.70;;;0.30;;
45806;SDS011;31507;51.494;7.518;2023-04-24T00:05:11;1.33;;;0.50;;
45806;SDS011;31507;51.494;7.518;2023-04-24T00:07:41;1.58;;;0.50;;
45806;SDS011;31507;51.494;7.518;2023-04-24T00:10:07;2.67;;;0.75;;
45806;SDS011;31507;51.494;7.518;2023-04-24T00:12:34;1.77;;;0.63;;
45806;SDS011;31507;51.494;7.518;2023-04-24T00:14:59;1.63;;;0.80;;
45806;SDS011;31507;51.494;7.518;2023-04-24T00:17:25;2.75;;;0.43;;
45806;SDS011;31507;51.494;7.518;2023-04-24T00:19:51;2.03;;;0.65;;
45806;SDS011;31507;51.494;7.518;2023-04-24T00:22:23;0.75;;;0.32;;
45806;SDS011;31507;51.494;7.518;2023-04-24T00:24:53;0.45;;;0.43;;
45806;SDS011;31507;51.494;7.518;2023-04-24T00:27:19;1.50;;;0.60;;
45806;SDS011;31507;51.494;7.518;2023-04-24T00:29:45;0.70;;;0.60;;
45806;SDS011;31507;51.494;7.518;2023-04-24T00:32:11;0.73;;;0.60;;
45806;SDS011;31507;51.494;7.518;2023-04-24T00:34:36;3.63;;;0.75;;
45806;SDS011;31507;51.494;7.518;2023-04-24T00:37:02;2.30;;;0.70;;
45806;SDS011;31507;51.494;7.518;2023-04-24T00:39:28;1.10;;;0.68;;
45806;SDS011;31507;51.494;7.518;2023-04-24T00:41:53;0.60;;;0.60;;
45806;SDS011;31507;51.494;7.518;2023-04-24T00:44:20;4.15;;;0.90;;
45806;SDS011;31507;51.494;7.518;2023-04-24T00:46:45;1.02;;;0.60;;
45806;SDS011;31507;51.494;7.518;2023-04-24T00:49:12;1.13;;;0.77;;
45806;SDS011;31507;51.494;7.518;2023-04-24T00:51:44;1.10;;;0.63;;
45806;SDS011;31507;51.494;7.518;2023-04-24T00:54:10;1.20;;;0.80;;
45806;SDS011;31507;51.494;7.518;2023-04-24T00:56:36;0.80;;;0.80;;
45806;SDS011;31507;51.494;7.518;2023-04-24T00:59:02;1.52;;;1.00;;
45806;SDS011;31507;51.494;7.518;2023-04-24T01:01:29;1.27;;;1.00;;
45806;SDS011;31507;51.494;7.518;2023-04-24T01:03:55;2.13;;;0.70;;
45806;SDS011;31507;51.494;7.518;2023-04-24T01:06:22;2.10;;;1.00;;
45806;SDS011;31507;51.494;7.518;2023-04-24T01:08:51;1.83;;;0.80;;
45806;SDS011;31507;51.494;7.518;2023-04-24T01:11:17;0.75;;;0.75;;
45806;SDS011;31507;51.494;7.518;2023-04-24T01:13:43;1.45;;;0.80;;
45806;SDS011;31507;51.494;7.518;2023-04-24T01:16:10;1.67;;;1.20;;
45806;SDS011;31507;51.494;7.518;2023-04-24T01:18:35;1.05;;;0.80;;
45806;SDS011;31507;51.494;7.518;2023-04-24T01:21:02;1.85;;;1.10;;
45806;SDS011;31507;51.494;7.518;2023-04-24T01:23:29;2.05;;;1.10;;
45806;SDS011;31507;51.494;7.518;2023-04-24T01:25:55;3.90;;;1.15;;
45806;SDS011;31507;51.494;7.518;2023-04-24T01:28:21;1.92;;;1.38;;
45806;SDS011;31507;51.494;7.518;2023-04-24T01:30:48;2.05;;;1.20;;
45806;SDS011;31507;51.494;7.518;2023-04-24T01:33:14;2.40;;;1.23;;
45806;SDS011;31507;51.494;7.518;2023-04-24T01:35:40;2.17;;;1.05;;
45806;SDS011;31507;51.494;7.518;2023-04-24T01:38:06;2.28;;;1.10;;
45806;SDS011;31507;51.494;7.518;2023-04-24T01:40:32;1.40;;;1.08;;
45806;SDS011;31507;51.494;7.518;2023-04-24T01:42:57;2.42;;;1.42;;
45806;SDS011;31507;51.494;7.518;2023-04-24T01:45:23;1.60;;;1.17;;
45806;SDS011;31507;51.494;7.518;2023-04-24T01:47:49;1.55;;;1.10;;
45806;SDS011;31507;51.494;7.518;2023-04-24T01:50:15;1.33;;;1.02;;
45806;SDS011;31507;51.494;7.518;2023-04-24T01:52:41;1.25;;;1.08;;
45806;SDS011;31507;51.494;7.518;2023-04-24T01:55:07;2.97;;;1.10;;
45806;SDS011;31507;51.494;7.518;2023-04-24T01:57:33;2.38;;;1.00;;
45806;SDS011;31507;51.494;7.518;2023-04-24T01:59:59;2.60;;;1.25;;
45806;SDS011;31507;51.494;7.518;2023-04-24T02:02:25;1.10;;;1.00;;
45806;SDS011;31507;51.494;7.518;2023-04-24T02:04:53;3.45;;;1.15;;
45806;SDS011;31507;51.494;7.518;2023-04-24T02:07:19;2.58;;;1.13;;
45806;SDS011;31507;51.494;7.518;2023-04-24T02:09:45;2.47;;;0.90;;
45806;SDS011;31507;51.494;7.518;2023-04-24T02:12:10;13.20;;;1.20;;
45806;SDS011;31507;51.494;7.518;2023-04-24T02:14:36;1.40;;;1.27;;
45806;SDS011;31507;51.494;7.518;2023-04-24T02:17:02;1.27;;;1.13;;
45806;SDS011;31507;51.494;7.518;2023-04-24T02:19:27;2.35;;;1.30;;
45806;SDS011;31507;51.494;7.518;2023-04-24T02:21:53;2.05;;;1.33;;
45806;SDS011;31507;51.494;7.518;2023-04-24T02:24:19;2.05;;;1.23;;
45806;SDS011;31507;51.494;7.518;2023-04-24T02:26:44;2.10;;;1.30;;
45806;SDS011;31507;51.494;7.518;2023-04-24T02:29:10;1.40;;;1.08;;
45806;SDS011;31507;51.494;7.518;2023-04-24T02:31:35;2.13;;;1.30;;
45806;SDS011;31507;51.494;7.518;2023-04-24T02:34:01;2.00;;;1.52;;
45806;SDS011;31507;51.494;7.518;2023-04-24T02:36:27;2.35;;;1.73;;
45806;SDS011;31507;51.494;7.518;2023-04-24T02:38:52;2.53;;;1.90;;
45806;SDS011;31507;51.494;7.518;2023-04-24T02:41:18;3.50;;;2.17;;
45806;SDS011;31507;51.494;7.518;2023-04-24T02:43:44;2.50;;;1.70;;
45806;SDS011;31507;51.494;7.518;2023-04-24T02:46:10;3.58;;;2.13;;
45806;SDS011;31507;51.494;7.518;2023-04-24T02:48:36;3.47;;;2.00;;
45806;SDS011;31507;51.494;7.518;2023-04-24T02:51:01;4.03;;;2.20;;
45806;SDS011;31507;51.494;7.518;2023-04-24T02:53:27;2.95;;;2.10;;
45806;SDS011;31507;51.494;7.518;2023-04-24T02:55:54;3.28;;;2.10;;
45806;SDS011;31507;51.494;7.518;2023-04-24T02:58:20;3.35;;;2.40;;
45806;SDS011;31507;51.494;7.518;2023-04-24T03:00:46;4.72;;;2.55;;
45806;SDS011;31507;51.494;7.518;2023-04-24T03:03:12;3.65;;;2.38;;
45806;SDS011;31507;51.494;7.518;2023-04-24T03:05:37;4.95;;;3.28;;
45806;SDS011;31507;51.494;7.518;2023-04-24T03:08:03;6.95;;;3.95;;
45806;SDS011;31507;51.494;7.518;2023-04-24T03:10:29;6.90;;;3.70;;
45806;SDS011;31507;51.494;7.518;2023-04-24T03:12:55;7.40;;;4.95;;
45806;SDS011;31507;51.494;7.518;2023-04-24T03:15:21;8.57;;;5.78;;
45806;SDS011;31507;51.494;7.518;2023-04-24T03:17:46;10.15;;;5.80;;
45806;SDS011;31507;51.494;7.518;2023-04-24T03:20:13;7.40;;;5.70;;
45806;SDS011;31507;51.494;7.518;2023-04-24T03:22:39;8.55;;;5.78;;
45806;SDS011;31507;51.494;7.518;2023-04-24T03:25:05;11.73;;;6.10;;
45806;SDS011;31507;51.494;7.518;2023-04-24T03:27:31;7.88;;;6.72;;
45806;SDS011;31507;51.494;7.518;2023-04-24T03:29:56;8.10;;;6.07;;
45806;SDS011;31507;51.494;7.518;2023-04-24T03:32:22;10.73;;;6.80;;
45806;SDS011;31507;51.494;7.518;2023-04-24T03:34:48;10.27;;;7.13;;
45806;SDS011;31507;51.494;7.518;2023-04-24T03:37:15;10.98;;;7.57;;
45806;SDS011;31507;51.494;7.518;2023-04-24T03:39:41;10.32;;;7.45;;
45806;SDS011;31507;51.494;7.518;2023-04-24T03:42:07;10.23;;;7.63;;
45806;SDS011;31507;51.494;7.518;2023-04-24T03:44:33;9.23;;;7.65;;
45806;SDS011;31507;51.494;7.518;2023-04-24T03:47:00;11.60;;;8.02;;
45806;SDS011;31507;51.494;7.518;2023-04-24T03:49:25;13.07;;;7.03;;
45806;SDS011;31507;51.494;7.518;2023-04-24T03:51:51;12.95;;;7.88;;
45806;SDS011;31507;51.494;7.518;2023-04-24T03:54:17;14.10;;;8.00;;
45806;SDS011;31507;51.494;7.518;2023-04-24T03:56:43;12.15;;;8.40;;
45806;SDS011;31507;51.494;7.518;2023-04-24T03:59:09;11.10;;;7.75;;
45806;SDS011;31507;51.494;7.518;2023-04-24T04:01:36;9.98;;;7.85;;
45806;SDS011;31507;51.494;7.518;2023-04-24T04:04:05;12.07;;;8.18;;
45806;SDS011;31507;51.494;7.518;2023-04-24T04:06:32;13.52;;;8.82;;
45806;SDS011;31507;51.494;7.518;2023-04-24T04:08:58;15.32;;;8.90;;
45806;SDS011;31507;51.494;7.518;2023-04-24T04:11:24;11.40;;;8.05;;
45806;SDS011;31507;51.494;7.518;2023-04-24T04:13:50;13.52;;;8.98;;
45806;SDS011;31507;51.494;7.518;2023-04-24T04:16:15;11.60;;;8.40;;
45806;SDS011;31507;51.494;7.518;2023-04-24T04:18:44;13.68;;;9.38;;
45806;SDS011;31507;51.494;7.518;2023-04-24T04:21:10;12.88;;;8.35;;
45806;SDS011;31507;51.494;7.518;2023-04-24T04:23:36;11.32;;;8.68;;
45806;SDS011;31507;51.494;7.518;2023-04-24T04:26:02;13.32;;;8.50;;
45806;SDS011;31507;51.494;7.518;2023-04-24T04:28:28;13.43;;;8.80;;
45806;SDS011;31507;51.494;7.518;2023-04-24T04:30:56;12.77;;;8.63;;
45806;SDS011;31507;51.494;7.518;2023-04-24T04:33:22;13.20;;;9.18;;
45806;SDS011;31507;51.494;7.518;2023-04-24T04:35:49;11.00;;;8.32;;
45806;SDS011;31507;51.494;7.518;2023-04-24T04:38:17;13.02;;;8.13;;
45806;SDS011;31507;51.494;7.518;2023-04-24T04:40:44;12.43;;;7.82;;
45806;SDS011;31507;51.494;7.518;2023-04-24T04:43:10;15.23;;;8.07;;
45806;SDS011;31507;51.494;7.518;2023-04-24T04:45:36;13.82;;;8.65;;
45806;SDS011;31507;51.494;7.518;2023-04-24T04:48:03;14.82;;;8.82;;
45806;SDS011;31507;51.494;7.518;2023-04-24T04:50:29;12.80;;;8.55;;
45806;SDS011;31507;51.494;7.518;2023-04-24T04:52:55;14.02;;;8.38;;
45806;SDS011;31507;51.494;7.518;2023-04-24T04:55:21;18.77;;;9.98;;
45806;SDS011;31507;51.494;7.518;2023-04-24T04:57:46;15.90;;;8.82;;
45806;SDS011;31507;51.494;7.518;2023-04-24T05:00:12;14.50;;;8.43;;
45806;SDS011;31507;51.494;7.518;2023-04-24T05:02:38;15.10;;;9.77;;
45806;SDS011;31507;51.494;7.518;2023-04-24T05:05:04;14.50;;;9.30;;
45806;SDS011;31507;51.494;7.518;2023-04-24T05:07:31;13.82;;;9.52;;
45806;SDS011;31507;51.494;7.518;2023-04-24T05:09:57;16.88;;;9.82;;
45806;SDS011;31507;51.494;7.518;2023-04-24T05:12:22;13.68;;;9.48;;
45806;SDS011;31507;51.494;7.518;2023-04-24T05:14:48;18.73;;;9.30;;
45806;SDS011;31507;51.494;7.518;2023-04-24T05:17:13;13.05;;;8.82;;
45806;SDS011;31507;51.494;7.518;2023-04-24T05:19:40;14.52;;;10.00;;
45806;SDS011;31507;51.494;7.518;2023-04-24T05:22:05;15.85;;;10.05;;
45806;SDS011;31507;51.494;7.518;2023-04-24T05:24:35;13.20;;;9.13;;
45806;SDS011;31507;51.494;7.518;2023-04-24T05:27:01;12.48;;;9.70;;
45806;SDS011;31507;51.494;7.518;2023-04-24T05:29:29;14.20;;;9.80;;
45806;SDS011;31507;51.494;7.518;2023-04-24T05:31:58;13.82;;;9.48;;
45806;SDS011;31507;51.494;7.518;2023-04-24T05:34:25;12.80;;;8.48;;
45806;SDS011;31507;51.494;7.518;2023-04-24T05:36:51;14.30;;;8.15;;
45806;SDS011;31507;51.494;7.518;2023-04-24T05:39:17;9.35;;;6.88;;
45806;SDS011;31507;51.494;7.518;2023-04-24T05:41:42;12.80;;;7.57;;
45806;SDS011;31507;51.494;7.518;2023-04-24T05:44:08;10.07;;;7.20;;
45806;SDS011;31507;51.494;7.518;2023-04-24T05:46:34;8.95;;;7.35;;
45806;SDS011;31507;51.494;7.518;2023-04-24T05:49:00;13.20;;;7.15;;
45806;SDS011;31507;51.494;7.518;2023-04-24T05:51:26;10.45;;;7.18;;
45806;SDS011;31507;51.494;7.518;2023-04-24T05:53:52;13.63;;;7.47;;
45806;SDS011;31507;51.494;7.518;2023-04-24T05:56:18;10.85;;;6.20;;
45806;SDS011;31507;51.494;7.518;2023-04-24T05:58:45;14.07;;;7.68;;
45806;SDS011;31507;51.494;7.518;2023-04-24T06:01:11;10.10;;;6.43;;
45806;SDS011;31507;51.494;7.518;2023-04-24T06:03:38;10.43;;;6.55;;
45806;SDS011;31507;51.494;7.518;2023-04-24T06:06:05;9.45;;;5.75;;
45806;SDS011;31507;51.494;7.518;2023-04-24T06:08:31;11.68;;;7.78;;
45806;SDS011;31507;51.494;7.518;2023-04-24T06:10:57;10.13;;;6.70;;
45806;SDS011;31507;51.494;7.518;2023-04-24T06:13:23;11.30;;;7.00;;
45806;SDS011;31507;51.494;7.518;2023-04-24T06:15:49;12.48;;;7.47;;
45806;SDS011;31507;51.494;7.518;2023-04-24T06:18:15;10.30;;;7.57;;
45806;SDS011;31507;51.494;7.518;2023-04-24T06:20:40;12.55;;;7.35;;
45806;SDS011;31507;51.494;7.518;2023-04-24T06:23:06;10.98;;;7.68;;
45806;SDS011;31507;51.494;7.518;2023-04-24T06:25:32;12.18;;;7.22;;
45806;SDS011;31507;51.494;7.518;2023-04-24T06:27:57;10.63;;;6.95;;
45806;SDS011;31507;51.494;7.518;2023-04-24T06:30:23;12.18;;;7.00;;
45806;SDS011;31507;51.494;7.518;2023-04-24T06:32:49;11.23;;;6.30;;
45806;SDS011;31507;51.494;7.518;2023-04-24T06:35:14;10.07;;;5.97;;
45806;SDS011;31507;51.494;7.518;2023-04-24T06:37:40;7.10;;;5.55;;
45806;SDS011;31507;51.494;7.518;2023-04-24T06:40:07;7.15;;;5.47;;
45806;SDS011;31507;51.494;7.518;2023-04-24T06:42:33;7.47;;;4.32;;
45806;SDS011;31507;51.494;7.518;2023-04-24T06:44:59;7.60;;;5.20;;
45806;SDS011;31507;51.494;7.518;2023-04-24T06:47:25;7.28;;;5.25;;
45806;SDS011;31507;51.494;7.518;2023-04-24T06:49:51;7.65;;;4.30;;
45806;SDS011;31507;51.494;7.518;2023-04-24T06:52:17;6.07;;;4.25;;
45806;SDS011;31507;51.494;7.518;2023-04-24T06:54:43;5.25;;;3.90;;
45806;SDS011;31507;51.494;7.518;2023-04-24T06:57:09;4.63;;;3.90;;
45806;SDS011;31507;51.494;7.518;2023-04-24T06:59:35;3.55;;;3.25;;
45806;SDS011;31507;51.494;7.518;2023-04-24T07:02:01;4.80;;;3.30;;
45806;SDS011;31507;51.494;7.518;2023-04-24T07:04:27;5.05;;;3.67;;
45806;SDS011;31507;51.494;7.518;2023-04-24T07:06:53;6.13;;;3.40;;
45806;SDS011;31507;51.494;7.518;2023-04-24T07:09:20;4.97;;;3.75;;
45806;SDS011;31507;51.494;7.518;2023-04-24T07:11:48;4.75;;;3.58;;
45806;SDS011;31507;51.494;7.518;2023-04-24T07:14:14;6.55;;;4.03;;
45806;SDS011;31507;51.494;7.518;2023-04-24T07:16:40;4.47;;;3.80;;
45806;SDS011;31507;51.494;7.518;2023-04-24T07:19:06;5.28;;;4.22;;
45806;SDS011;31507;51.494;7.518;2023-04-24T07:21:32;6.13;;;4.47;;
45806;SDS011;31507;51.494;7.518;2023-04-24T07:23:58;6.10;;;4.07;;
45806;SDS011;31507;51.494;7.518;2023-04-24T07:26:25;5.88;;;4.68;;
45806;SDS011;31507;51.494;7.518;2023-04-24T07:28:51;7.57;;;4.57;;
45806;SDS011;31507;51.494;7.518;2023-04-24T07:31:17;6.25;;;4.07;;
45806;SDS011;31507;51.494;7.518;2023-04-24T07:33:42;4.20;;;3.80;;
45806;SDS011;31507;51.494;7.518;2023-04-24T07:36:08;4.03;;;3.40;;
45806;SDS011;31507;51.494;7.518;2023-04-24T07:38:40;5.72;;;3.25;;
45806;SDS011;31507;51.494;7.518;2023-04-24T07:41:06;3.33;;;2.08;;
45806;SDS011;31507;51.494;7.518;2023-04-24T07:43:32;4.63;;;2.92;;
45806;SDS011;31507;51.494;7.518;2023-04-24T07:45:58;1.98;;;1.83;;
45806;SDS011;31507;51.494;7.518;2023-04-24T07:48:24;3.15;;;1.98;;
45806;SDS011;31507;51.494;7.518;2023-04-24T07:50:51;3.15;;;2.00;;
45806;SDS011;31507;51.494;7.518;2023-04-24T07:53:17;2.05;;;1.85;;
45806;SDS011;31507;51.494;7.518;2023-04-24T07:55:43;1.92;;;1.50;;
45806;SDS011;31507;51.494;7.518;2023-04-24T07:58:08;3.33;;;1.90;;
45806;SDS011;31507;51.494;7.518;2023-04-24T08:00:34;3.13;;;2.08;;
45806;SDS011;31507;51.494;7.518;2023-04-24T08:03:00;5.50;;;2.25;;
45806;SDS011;31507;51.494;7.518;2023-04-24T08:05:26;3.05;;;1.98;;
45806;SDS011;31507;51.494;7.518;2023-04-24T08:07:53;3.22;;;1.70;;
45806;SDS011;31507;51.494;7.518;2023-04-24T08:10:20;1.63;;;1.52;;
45806;SDS011;31507;51.494;7.518;2023-04-24T08:12:49;2.75;;;1.30;;
45806;SDS011;31507;51.494;7.518;2023-04-24T08:15:15;1.63;;;1.50;;
45806;SDS011;31507;51.494;7.518;2023-04-24T08:17:40;1.80;;;1.20;;
45806;SDS011;31507;51.494;7.518;2023-04-24T08:20:06;1.88;;;1.50;;
45806;SDS011;31507;51.494;7.518;2023-04-24T08:22:38;2.33;;;1.20;;
45806;SDS011;31507;51.494;7.518;2023-04-24T08:25:07;2.40;;;1.33;;
45806;SDS011;31507;51.494;7.518;2023-04-24T08:27:34;1.30;;;1.20;;
45806;SDS011;31507;51.494;7.518;2023-04-24T08:30:01;2.67;;;1.55;;
45806;SDS011;31507;51.494;7.518;2023-04-24T08:32:28;1.75;;;1.17;;
45806;SDS011;31507;51.494;7.518;2023-04-24T08:34:55;3.28;;;1.90;;
45806;SDS011;31507;51.494;7.518;2023-04-24T08:37:21;2.00;;;0.93;;
45806;SDS011;31507;51.494;7.518;2023-04-24T08:39:47;3.67;;;0.60;;
45806;SDS011;31507;51.494;7.518;2023-04-24T08:42:14;2.28;;;0.60;;
45806;SDS011;31507;51.494;7.518;2023-04-24T08:44:41;1.58;;;0.60;;
45806;SDS011;31507;51.494;7.518;2023-04-24T08:47:08;0.40;;;0.40;;
45806;SDS011;31507;51.494;7.518;2023-04-24T08:49:35;0.50;;;0.40;;
45806;SDS011;31507;51.494;7.518;2023-04-24T08:52:02;0.52;;;0.30;;
45806;SDS011;31507;51.494;7.518;2023-04-24T08:54:28;0.30;;;0.30;;
45806;SDS011;31507;51.494;7.518;2023-04-24T08:56:56;0.20;;;0.20;;
45806;SDS011;31507;51.494;7.518;2023-04-24T08:59:27;0.68;;;0.30;;
45806;SDS011;31507;51.494;7.518;2023-04-24T09:01:53;0.63;;;0.63;;
45806;SDS011;31507;51.494;7.518;2023-04-24T09:04:21;0.70;;;0.45;;
45806;SDS011;31507;51.494;7.518;2023-04-24T09:06:49;0.68;;;0.60;;
45806;SDS011;31507;51.494;7.518;2023-04-24T09:09:22;3.80;;;0.40;;
45806;SDS011;31507;51.494;7.518;2023-04-24T09:11:51;0.85;;;0.50;;
45806;SDS011;31507;51.494;7.518;2023-04-24T09:14:20;2.08;;;0.65;;
45806;SDS011;31507;51.494;7.518;2023-04-24T09:16:46;0.75;;;0.60;;
45806;SDS011;31507;51.494;7.518;2023-04-24T09:19:12;1.00;;;0.50;;
45806;SDS011;31507;51.494;7.518;2023-04-24T09:21:38;0.77;;;0.57;;
45806;SDS011;31507;51.494;7.518;2023-04-24T09:24:06;1.05;;;0.70;;
45806;SDS011;31507;51.494;7.518;2023-04-24T09:26:34;0.68;;;0.68;;
45806;SDS011;31507;51.494;7.518;2023-04-24T09:29:01;2.58;;;1.00;;
45806;SDS011;31507;51.494;7.518;2023-04-24T09:31:28;1.55;;;1.02;;
45806;SDS011;31507;51.494;7.518;2023-04-24T09:33:58;0.98;;;0.98;;
45806;SDS011;31507;51.494;7.518;2023-04-24T09:36:35;2.00;;;1.10;;
45806;SDS011;31507;51.494;7.518;2023-04-24T09:39:03;1.65;;;1.40;;
45806;SDS011;31507;51.494;7.518;2023-04-24T09:41:31;2.38;;;1.58;;
45806;SDS011;31507;51.494;7.518;2023-04-24T09:44:01;4.85;;;1.58;;
45806;SDS011;31507;51.494;7.518;2023-04-24T09:46:37;3.40;;;2.33;;
45806;SDS011;31507;51.494;7.518;2023-04-24T09:49:10;2.33;;;2.13;;
45806;SDS011;31507;51.494;7.518;2023-04-24T09:51:38;2.35;;;2.17;;
45806;SDS011;31507;51.494;7.518;2023-04-24T09:54:05;4.13;;;2.45;;
45806;SDS011;31507;51.494;7.518;2023-04-24T09:56:44;2.40;;;2.20;;
45806;SDS011;31507;51.494;7.518;2023-04-24T09:59:12;5.97;;;2.50;;
45806;SDS011;31507;51.494;7.518;2023-04-24T10:01:39;3.78;;;2.10;;
45806;SDS011;31507;51.494;7.518;2023-04-24T10:04:14;3.40;;;2.17;;
45806;SDS011;31507;51.494;7.518;2023-04-24T10:06:48;5.28;;;2.15;;
45806;SDS011;31507;51.494;7.518;2023-04-24T10:09:14;2.70;;;2.40;;
45806;SDS011;31507;51.494;7.518;2023-04-24T10:11:41;5.03;;;2.47;;
45806;SDS011;31507;51.494;7.518;2023-04-24T10:14:11;4.50;;;2.00;;
45806;SDS011;31507;51.494;7.518;2023-04-24T10:16:42;3.38;;;2.30;;
45806;SDS011;31507;51.494;7.518;2023-04-24T10:19:09;4.47;;;2.40;;
45806;SDS011;31507;51.494;7.518;2023-04-24T10:21:35;4.78;;;2.17;;
45806;SDS011;31507;51.494;7.518;2023-04-24T10:24:07;6.07;;;2.55;;
45806;SDS011;31507;51.494;7.518;2023-04-24T10:26:36;4.13;;;2.40;;
45806;SDS011;31507;51.494;7.518;2023-04-24T10:29:03;4.95;;;3.22;;
45806;SDS011;31507;51.494;7.518;2023-04-24T10:31:34;6.93;;;3.22;;
45806;SDS011;31507;51.494;7.518;2023-04-24T10:34:03;4.20;;;3.47;;
45806;SDS011;31507;51.494;7.518;2023-04-24T10:36:30;3.70;;;2.47;;
45806;SDS011;31507;51.494;7.518;2023-04-24T10:38:59;3.35;;;2.90;;
45806;SDS011;31507;51.494;7.518;2023-04-24T10:41:26;5.85;;;3.30;;
45806;SDS011;31507;51.494;7.518;2023-04-24T10:44:05;5.18;;;3.75;;
45806;SDS011;31507;51.494;7.518;2023-04-24T10:46:31;4.78;;;3.60;;
45806;SDS011;31507;51.494;7.518;2023-04-24T10:48:57;6.60;;;4.00;;
45806;SDS011;31507;51.494;7.518;2023-04-24T10:51:23;5.05;;;3.20;;
45806;SDS011;31507;51.494;7.518;2023-04-24T10:53:50;5.53;;;3.80;;
45806;SDS011;31507;51.494;7.518;2023-04-24T10:56:16;7.72;;;4.47;;
45806;SDS011;31507;51.494;7.518;2023-04-24T11:01:24;6.15;;;3.83;;
45806;SDS011;31507;51.494;7.518;2023-04-24T11:03:57;7.55;;;4.32;;
45806;SDS011;31507;51.494;7.518;2023-04-24T11:06:28;9.20;;;4.60;;
45806;SDS011;31507;51.494;7.518;2023-04-24T11:09:07;9.30;;;4.60;;
45806;SDS011;31507;51.494;7.518;2023-04-24T11:11:35;7.10;;;5.05;;
45806;SDS011;31507;51.494;7.518;2023-04-24T11:14:06;8.23;;;5.53;;
45806;SDS011;31507;51.494;7.518;2023-04-24T11:27:19;12.10;;;6.55;;
45806;SDS011;31507;51.494;7.518;2023-04-24T11:37:34;15.10;;;6.65;;
45806;SDS011;31507;51.494;7.518;2023-04-24T11:40:04;18.55;;;7.53;;
45806;SDS011;31507;51.494;7.518;2023-04-24T11:42:39;24.70;;;9.10;;
45806;SDS011;31507;51.494;7.518;2023-04-24T11:45:12;21.25;;;8.73;;
45806;SDS011;31507;51.494;7.518;2023-04-24T11:47:40;21.40;;;8.38;;
45806;SDS011;31507;51.494;7.518;2023-04-24T11:50:10;23.13;;;9.32;;
45806;SDS011;31507;51.494;7.518;2023-04-24T11:52:38;20.23;;;8.15;;
45806;SDS011;31507;51.494;7.518;2023-04-24T11:55:12;17.85;;;8.93;;
45806;SDS011;31507;51.494;7.518;2023-04-24T11:57:48;22.02;;;8.30;;
45806;SDS011;31507;51.494;7.518;2023-04-24T12:00:16;21.25;;;9.70;;
45806;SDS011;31507;51.494;7.518;2023-04-24T12:02:43;24.30;;;8.60;;
45806;SDS011;31507;51.494;7.518;2023-04-24T12:05:09;30.52;;;9.57;;
45806;SDS011;31507;51.494;7.518;2023-04-24T12:07:43;23.70;;;9.57;;
45806;SDS011;31507;51.494;7.518;2023-04-24T12:10:09;24.75;;;10.90;;
45806;SDS011;31507;51.494;7.518;2023-04-24T12:12:35;20.40;;;9.77;;
45806;SDS011;31507;51.494;7.518;2023-04-24T12:15:01;18.60;;;9.60;;
45806;SDS011;31507;51.494;7.518;2023-04-24T12:17:32;24.45;;;9.10;;
45806;SDS011;31507;51.494;7.518;2023-04-24T12:20:05;25.65;;;8.32;;
45806;SDS011;31507;51.494;7.518;2023-04-24T12:25:21;17.35;;;6.35;;
45806;SDS011;31507;51.494;7.518;2023-04-24T12:28:10;18.05;;;6.03;;
45806;SDS011;31507;51.494;7.518;2023-04-24T12:33:05;12.68;;;5.43;;
45806;SDS011;31507;51.494;7.518;2023-04-24T12:35:32;20.65;;;6.03;;
45806;SDS011;31507;51.494;7.518;2023-04-24T12:38:13;17.52;;;6.07;;
45806;SDS011;31507;51.494;7.518;2023-04-24T12:40:41;9.98;;;5.72;;
45806;SDS011;31507;51.494;7.518;2023-04-24T12:43:17;14.15;;;4.63;;
45806;SDS011;31507;51.494;7.518;2023-04-24T12:45:43;14.05;;;4.95;;
45806;SDS011;31507;51.494;7.518;2023-04-24T12:48:12;8.20;;;4.90;;
45806;SDS011;31507;51.494;7.518;2023-04-24T12:50:39;22.23;;;5.55;;
45806;SDS011;31507;51.494;7.518;2023-04-24T12:53:08;12.45;;;4.18;;
45806;SDS011;31507;51.494;7.518;2023-04-24T12:55:35;10.40;;;4.00;;
45806;SDS011;31507;51.494;7.518;2023-04-24T12:58:00;10.70;;;4.40;;
45806;SDS011;31507;51.494;7.518;2023-04-24T13:00:27;12.77;;;4.00;;
45806;SDS011;31507;51.494;7.518;2023-04-24T13:02:53;12.50;;;4.07;;
45806;SDS011;31507;51.494;7.518;2023-04-24T13:05:19;12.63;;;4.07;;
45806;SDS011;31507;51.494;7.518;2023-04-24T13:07:45;14.00;;;4.07;;
45806;SDS011;31507;51.494;7.518;2023-04-24T13:10:11;12.15;;;5.00;;
45806;SDS011;31507;51.494;7.518;2023-04-24T13:12:38;11.07;;;4.38;;
45806;SDS011;31507;51.494;7.518;2023-04-24T13:15:04;11.40;;;4.63;;
45806;SDS011;31507;51.494;7.518;2023-04-24T13:17:30;7.55;;;4.07;;
45806;SDS011;31507;51.494;7.518;2023-04-24T13:19:56;13.70;;;4.45;;
45806;SDS011;31507;51.494;7.518;2023-04-24T13:22:21;16.48;;;5.22;;
45806;SDS011;31507;51.494;7.518;2023-04-24T13:24:47;10.18;;;4.47;;
45806;SDS011;31507;51.494;7.518;2023-04-24T13:27:16;12.25;;;5.35;;
45806;SDS011;31507;51.494;7.518;2023-04-24T13:29:42;15.57;;;4.57;;
45806;SDS011;31507;51.494;7.518;2023-04-24T13:32:08;10.93;;;3.85;;
45806;SDS011;31507;51.494;7.518;2023-04-24T13:34:34;10.20;;;3.10;;
45806;SDS011;31507;51.494;7.518;2023-04-24T13:37:00;7.13;;;3.10;;
45806;SDS011;31507;51.494;7.518;2023-04-24T13:39:28;6.00;;;2.83;;
45806;SDS011;31507;51.494;7.518;2023-04-24T13:41:54;9.13;;;2.85;;
45806;SDS011;31507;51.494;7.518;2023-04-24T13:44:20;3.53;;;2.50;;
45806;SDS011;31507;51.494;7.518;2023-04-24T13:46:47;4.38;;;2.85;;
45806;SDS011;31507;51.494;7.518;2023-04-24T13:49:15;8.30;;;3.40;;
45806;SDS011;31507;51.494;7.518;2023-04-24T13:51:41;5.60;;;2.70;;
45806;SDS011;31507;51.494;7.518;2023-04-24T13:54:08;7.15;;;2.35;;
45806;SDS011;31507;51.494;7.518;2023-04-24T13:56:33;7.40;;;3.00;;
45806;SDS011;31507;51.494;7.518;2023-04-24T13:58:59;6.38;;;2.50;;
45806;SDS011;31507;51.494;7.518;2023-04-24T14:01:25;5.40;;;2.45;;
45806;SDS011;31507;51.494;7.518;2023-04-24T14:03:51;9.15;;;2.53;;
45806;SDS011;31507;51.494;7.518;2023-04-24T14:06:20;4.65;;;1.90;;
45806;SDS011;31507;51.494;7.518;2023-04-24T14:08:46;6.75;;;2.10;;
45806;SDS011;31507;51.494;7.518;2023-04-24T14:11:12;4.00;;;1.90;;
45806;SDS011;31507;51.494;7.518;2023-04-24T14:13:40;4.93;;;1.63;;
45806;SDS011;31507;51.494;7.518;2023-04-24T14:16:06;12.27;;;2.30;;
45806;SDS011;31507;51.494;7.518;2023-04-24T14:18:32;3.88;;;1.90;;
45806;SDS011;31507;51.494;7.518;2023-04-24T14:20:58;3.28;;;1.65;;
45806;SDS011;31507;51.494;7.518;2023-04-24T14:23:24;4.75;;;1.50;;
45806;SDS011;31507;51.494;7.518;2023-04-24T14:25:49;8.70;;;1.88;;
45806;SDS011;31507;51.494;7.518;2023-04-24T14:28:17;6.10;;;1.83;;
45806;SDS011;31507;51.494;7.518;2023-04-24T14:30:44;4.47;;;1.65;;
45806;SDS011;31507;51.494;7.518;2023-04-24T14:33:10;3.63;;;1.95;;
45806;SDS011;31507;51.494;7.518;2023-04-24T14:35:36;3.58;;;1.60;;
45806;SDS011;31507;51.494;7.518;2023-04-24T14:38:02;4.13;;;1.80;;
45806;SDS011;31507;51.494;7.518;2023-04-24T14:40:28;7.50;;;1.90;;
45806;SDS011;31507;51.494;7.518;2023-04-24T14:42:53;7.10;;;1.70;;
45806;SDS011;31507;51.494;7.518;2023-04-24T14:45:19;4.95;;;1.50;;
45806;SDS011;31507;51.494;7.518;2023-04-24T14:47:45;6.32;;;1.70;;
45806;SDS011;31507;51.494;7.518;2023-04-24T14:50:10;3.05;;;1.15;;
45806;SDS011;31507;51.494;7.518;2023-04-24T14:52:37;4.03;;;1.58;;
45806;SDS011;31507;51.494;7.518;2023-04-24T14:55:03;5.00;;;1.88;;
45806;SDS011;31507;51.494;7.518;2023-04-24T14:57:29;5.75;;;1.73;;
45806;SDS011;31507;51.494;7.518;2023-04-24T14:59:55;5.63;;;1.83;;
45806;SDS011;31507;51.494;7.518;2023-04-24T15:02:21;5.07;;;1.77;;
45806;SDS011;31507;51.494;7.518;2023-04-24T15:04:46;5.35;;;1.70;;
45806;SDS011;31507;51.494;7.518;2023-04-24T15:07:12;5.30;;;1.85;;